sensor_id;sensor_type;location;lat;lon;timestamp;pressure;altitude;pressure_sealevel;temperature;humidity
56052;BME280;41919;42.648;23.384;2023-03-04T00:01:38;94530.03;;;6.03;100.00
56052;BME280;41919;42.648;23.384;2023-03-04T00:04:03;94486.13;;;5.78;100.00
56052;BME280;41919;42.648;23.384;2023-03-04T00:06:29;94609.25;;;6.66;100.00
56052;BME280;41919;42.648;23.384;2023-03-04T00:08:54;94596.78;;;6.77;100.00
56052;BME280;41919;42.648;23.384;2023-03-04T00:11:20;94553.81;;;6.59;100.00
56052;BME280;41919;42.648;23.384;2023-03-04T00:13:45;94593.13;;;7.01;100.00
56052;BME280;41919;42.648;23.384;2023-03-04T00:16:11;94580.13;;;7.01;100.00
56052;BME280;41919;42.648;23.384;2023-03-04T00:18:36;94522.66;;;6.74;100.00
56052;BME280;41919;42.648;23.384;2023-03-04T00:21:01;94590.06;;;7.27;100.00
56052;BME280;41919;42.648;23.384;2023-03-04T00:23:27;94515.94;;;6.80;100.00
56052;BME280;41919;42.648;23.384;2023-03-04T00:25:52;94575.16;;;7.21;100.00
56052;BME280;41919;42.648;23.384;2023-03-04T00:28:18;94539.38;;;7.01;100.00
56052;BME280;41919;42.648;23.384;2023-03-04T00:30:43;94588.16;;;7.36;100.00
56052;BME280;41919;42.648;23.384;2023-03-04T00:33:09;94528.72;;;6.96;99.85
56052;BME280;41919;42.648;23.384;2023-03-04T00:35:34;94586.47;;;7.28;99.79
56052;BME280;41919;42.648;23.384;2023-03-04T00:38:00;94509.66;;;6.74;99.85
56052;BME280;41919;42.648;23.384;2023-03-04T00:40:25;94517.00;;;6.85;99.89
56052;BME280;41919;42.648;23.384;2023-03-04T00:42:51;94549.75;;;7.01;99.34
56052;BME280;41919;42.648;23.384;2023-03-04T00:45:17;94562.28;;;7.13;99.01
56052;BME280;41919;42.648;23.384;2023-03-04T00:47:42;94531.56;;;7.01;98.69
56052;BME280;41919;42.648;23.384;2023-03-04T00:50:09;94572.97;;;7.18;99.08
56052;BME280;41919;42.648;23.384;2023-03-04T00:52:34;94585.22;;;7.24;99.42
56052;BME280;41919;42.648;23.384;2023-03-04T00:55:00;94571.09;;;7.12;99.61
56052;BME280;41919;42.648;23.384;2023-03-04T00:57:25;94502.31;;;6.78;99.70
56052;BME280;41919;42.648;23.384;2023-03-04T00:59:51;94549.47;;;7.11;98.94
56052;BME280;41919;42.648;23.384;2023-03-04T01:02:16;94573.84;;;7.25;99.08
56052;BME280;41919;42.648;23.384;2023-03-04T01:04:42;94492.50;;;6.73;98.83
56052;BME280;41919;42.648;23.384;2023-03-04T01:07:08;94571.16;;;7.18;99.50
56052;BME280;41919;42.648;23.384;2023-03-04T01:09:33;94577.38;;;6.87;100.00
56052;BME280;41919;42.648;23.384;2023-03-04T01:11:58;94502.31;;;6.48;100.00
56052;BME280;41919;42.648;23.384;2023-03-04T01:14:24;94511.91;;;6.62;100.00
56052;BME280;41919;42.648;23.384;2023-03-04T01:16:50;94529.03;;;6.72;100.00
56052;BME280;41919;42.648;23.384;2023-03-04T01:19:16;94567.88;;;7.10;100.00
56052;BME280;41919;42.648;23.384;2023-03-04T01:21:41;94547.34;;;7.00;100.00
56052;BME280;41919;42.648;23.384;2023-03-04T01:24:07;94489.16;;;6.79;100.00
56052;BME280;41919;42.648;23.384;2023-03-04T01:26:33;94433.59;;;6.44;100.00
56052;BME280;41919;42.648;23.384;2023-03-04T01:28:58;94479.84;;;6.70;100.00
56052;BME280;41919;42.648;23.384;2023-03-04T01:31:23;94465.63;;;6.51;100.00
56052;BME280;41919;42.648;23.384;2023-03-04T01:33:49;94555.72;;;7.17;100.00
56052;BME280;41919;42.648;23.384;2023-03-04T01:36:14;94547.94;;;7.17;100.00
56052;BME280;41919;42.648;23.384;2023-03-04T01:38:40;94548.66;;;7.25;100.00
56052;BME280;41919;42.648;23.384;2023-03-04T01:41:05;94512.22;;;7.04;99.56
56052;BME280;41919;42.648;23.384;2023-03-04T01:43:32;94486.19;;;6.82;99.40
56052;BME280;41919;42.648;23.384;2023-03-04T01:46:00;94532.34;;;7.17;99.07
56052;BME280;41919;42.648;23.384;2023-03-04T01:48:28;94502.22;;;6.86;98.55
56052;BME280;41919;42.648;23.384;2023-03-04T01:50:55;94515.19;;;6.86;99.62
56052;BME280;41919;42.648;23.384;2023-03-04T01:53:25;94534.25;;;7.08;99.45
56052;BME280;41919;42.648;23.384;2023-03-04T01:55:53;94471.34;;;6.61;98.40
56052;BME280;41919;42.648;23.384;2023-03-04T01:58:19;94465.44;;;6.67;97.69
56052;BME280;41919;42.648;23.384;2023-03-04T02:00:45;94433.22;;;6.47;97.93
56052;BME280;41919;42.648;23.384;2023-03-04T02:03:13;94523.94;;;7.00;98.36
56052;BME280;41919;42.648;23.384;2023-03-04T02:05:42;94466.16;;;6.61;97.89
56052;BME280;41919;42.648;23.384;2023-03-04T02:08:09;94508.41;;;6.85;97.50
56052;BME280;41919;42.648;23.384;2023-03-04T02:10:35;94485.69;;;6.57;97.80
56052;BME280;41919;42.648;23.384;2023-03-04T02:13:01;94533.31;;;6.79;98.51
56052;BME280;41919;42.648;23.384;2023-03-04T02:15:28;94528.03;;;6.73;98.95
56052;BME280;41919;42.648;23.384;2023-03-04T02:17:53;94520.16;;;6.81;99.08
56052;BME280;41919;42.648;23.384;2023-03-04T02:23:54;94456.09;;;6.37;98.53
56052;BME280;41919;42.648;23.384;2023-03-04T02:26:25;94527.72;;;6.97;98.01
56052;BME280;41919;42.648;23.384;2023-03-04T02:28:53;94533.38;;;6.86;98.07
56052;BME280;41919;42.648;23.384;2023-03-04T02:31:33;94536.63;;;6.73;99.06
56052;BME280;41919;42.648;23.384;2023-03-04T02:34:01;94517.56;;;6.66;99.64
56052;BME280;41919;42.648;23.384;2023-03-04T02:36:29;94458.41;;;6.32;99.74
56052;BME280;41919;42.648;23.384;2023-03-04T02:39:00;94451.78;;;6.29;99.92
56052;BME280;41919;42.648;23.384;2023-03-04T02:41:28;94521.56;;;6.83;99.59
56052;BME280;41919;42.648;23.384;2023-03-04T02:43:54;94448.28;;;6.37;99.13
56052;BME280;41919;42.648;23.384;2023-03-04T02:46:21;94497.84;;;6.72;98.50
56052;BME280;41919;42.648;23.384;2023-03-04T02:48:48;94513.44;;;6.72;98.95
56052;BME280;41919;42.648;23.384;2023-03-04T02:51:14;94454.19;;;6.01;100.00
56052;BME280;41919;42.648;23.384;2023-03-04T02:53:39;94442.03;;;5.78;100.00
56052;BME280;41919;42.648;23.384;2023-03-04T02:56:05;94446.53;;;5.84;100.00
56052;BME280;41919;42.648;23.384;2023-03-04T02:58:31;94524.47;;;6.29;100.00
56052;BME280;41919;42.648;23.384;2023-03-04T03:00:56;94524.34;;;6.22;100.00
56052;BME280;41919;42.648;23.384;2023-03-04T03:03:22;94523.44;;;6.15;100.00
56052;BME280;41919;42.648;23.384;2023-03-04T03:05:47;94476.75;;;5.77;100.00
56052;BME280;41919;42.648;23.384;2023-03-04T03:08:13;94441.84;;;5.65;100.00
56052;BME280;41919;42.648;23.384;2023-03-04T03:10:38;94519.50;;;6.19;100.00
56052;BME280;41919;42.648;23.384;2023-03-04T03:13:03;94512.78;;;6.25;100.00
56052;BME280;41919;42.648;23.384;2023-03-04T03:15:29;94502.00;;;6.21;100.00
56052;BME280;41919;42.648;23.384;2023-03-04T03:17:55;94523.75;;;6.50;100.00
56052;BME280;41919;42.648;23.384;2023-03-04T03:20:20;94514.06;;;6.59;99.81
56052;BME280;41919;42.648;23.384;2023-03-04T03:22:46;94461.44;;;6.20;99.99
56052;BME280;41919;42.648;23.384;2023-03-04T03:25:12;94450.44;;;6.18;99.17
56052;BME280;41919;42.648;23.384;2023-03-04T03:27:39;94528.28;;;6.63;98.61
56052;BME280;41919;42.648;23.384;2023-03-04T03:30:05;94495.72;;;6.60;98.13
56052;BME280;41919;42.648;23.384;2023-03-04T03:32:31;94504.91;;;6.78;97.41
56052;BME280;41919;42.648;23.384;2023-03-04T03:34:57;94444.06;;;6.51;96.16
56052;BME280;41919;42.648;23.384;2023-03-04T03:37:22;94440.13;;;6.55;94.83
56052;BME280;41919;42.648;23.384;2023-03-04T03:39:48;94455.91;;;6.75;94.43
56052;BME280;41919;42.648;23.384;2023-03-04T03:42:13;94499.25;;;7.04;94.44
56052;BME280;41919;42.648;23.384;2023-03-04T03:44:39;94450.66;;;6.68;94.14
56052;BME280;41919;42.648;23.384;2023-03-04T03:47:04;94443.41;;;6.63;93.88
56052;BME280;41919;42.648;23.384;2023-03-04T03:49:30;94511.50;;;6.95;94.08
56052;BME280;41919;42.648;23.384;2023-03-04T03:51:55;94507.56;;;6.99;93.38
56052;BME280;41919;42.648;23.384;2023-03-04T03:54:20;94482.78;;;6.82;93.33
56052;BME280;41919;42.648;23.384;2023-03-04T03:56:46;94481.53;;;6.78;93.30
56052;BME280;41919;42.648;23.384;2023-03-04T03:59:11;94500.84;;;6.90;93.34
56052;BME280;41919;42.648;23.384;2023-03-04T04:01:37;94335.00;;;5.84;93.08
56052;BME280;41919;42.648;23.384;2023-03-04T04:04:02;94439.66;;;6.51;93.34
56052;BME280;41919;42.648;23.384;2023-03-04T04:06:28;94443.28;;;6.50;93.27
56052;BME280;41919;42.648;23.384;2023-03-04T04:08:53;94463.38;;;6.63;93.52
56052;BME280;41919;42.648;23.384;2023-03-04T04:11:19;94404.34;;;6.20;93.66
56052;BME280;41919;42.648;23.384;2023-03-04T04:13:44;94445.34;;;5.72;96.99
56052;BME280;41919;42.648;23.384;2023-03-04T04:16:10;94438.31;;;5.43;100.00
56052;BME280;41919;42.648;23.384;2023-03-04T04:18:36;94499.41;;;5.60;98.42
56052;BME280;41919;42.648;23.384;2023-03-04T04:21:03;94416.50;;;4.91;99.86
56052;BME280;41919;42.648;23.384;2023-03-04T04:23:28;94505.97;;;5.25;100.00
56052;BME280;41919;42.648;23.384;2023-03-04T04:25:55;94438.78;;;4.69;100.00
56052;BME280;41919;42.648;23.384;2023-03-04T04:28:21;94441.50;;;4.44;100.00
56052;BME280;41919;42.648;23.384;2023-03-04T04:30:47;94421.44;;;4.07;100.00
56052;BME280;41919;42.648;23.384;2023-03-04T04:33:12;94491.84;;;4.34;100.00
56052;BME280;41919;42.648;23.384;2023-03-04T04:35:38;94428.94;;;3.77;100.00
56052;BME280;41919;42.648;23.384;2023-03-04T04:38:04;94501.56;;;4.23;100.00
56052;BME280;41919;42.648;23.384;2023-03-04T04:40:29;94418.13;;;3.82;100.00
56052;BME280;41919;42.648;23.384;2023-03-04T04:42:55;94429.59;;;3.87;100.00
56052;BME280;41919;42.648;23.384;2023-03-04T04:45:21;94487.72;;;4.00;100.00
56052;BME280;41919;42.648;23.384;2023-03-04T04:47:49;94380.09;;;3.18;100.00
56052;BME280;41919;42.648;23.384;2023-03-04T04:50:15;94429.97;;;3.35;100.00
56052;BME280;41919;42.648;23.384;2023-03-04T04:52:40;94417.53;;;3.14;100.00
56052;BME280;41919;42.648;23.384;2023-03-04T04:55:06;94498.91;;;3.59;100.00
56052;BME280;41919;42.648;23.384;2023-03-04T04:57:32;94511.03;;;3.67;100.00
56052;BME280;41919;42.648;23.384;2023-03-04T04:59:57;94413.19;;;2.98;100.00
56052;BME280;41919;42.648;23.384;2023-03-04T05:02:23;94449.84;;;3.26;100.00
56052;BME280;41919;42.648;23.384;2023-03-04T05:04:48;94498.13;;;3.59;100.00
56052;BME280;41919;42.648;23.384;2023-03-04T05:07:14;94508.44;;;3.59;100.00
56052;BME280;41919;42.648;23.384;2023-03-04T05:09:39;94522.34;;;3.58;100.00
56052;BME280;41919;42.648;23.384;2023-03-04T05:12:05;94437.25;;;3.07;100.00
56052;BME280;41919;42.648;23.384;2023-03-04T05:14:30;94449.66;;;3.20;100.00
56052;BME280;41919;42.648;23.384;2023-03-04T05:16:56;94519.88;;;3.89;100.00
56052;BME280;41919;42.648;23.384;2023-03-04T05:19:21;94518.56;;;4.09;100.00
56052;BME280;41919;42.648;23.384;2023-03-04T05:21:47;94477.03;;;4.11;100.00
56052;BME280;41919;42.648;23.384;2023-03-04T05:24:12;94528.66;;;4.60;100.00
56052;BME280;41919;42.648;23.384;2023-03-04T05:26:37;94515.72;;;4.52;100.00
56052;BME280;41919;42.648;23.384;2023-03-04T05:29:03;94519.47;;;4.41;100.00
56052;BME280;41919;42.648;23.384;2023-03-04T05:31:29;94465.53;;;4.13;100.00
56052;BME280;41919;42.648;23.384;2023-03-04T05:33:54;94533.06;;;4.35;100.00
56052;BME280;41919;42.648;23.384;2023-03-04T05:36:20;94530.03;;;4.15;100.00
56052;BME280;41919;42.648;23.384;2023-03-04T05:38:45;94540.06;;;4.18;100.00
56052;BME280;41919;42.648;23.384;2023-03-04T05:41:11;94533.94;;;4.11;100.00
56052;BME280;41919;42.648;23.384;2023-03-04T05:43:37;94475.47;;;3.77;100.00
56052;BME280;41919;42.648;23.384;2023-03-04T05:46:07;94551.56;;;4.07;100.00
56052;BME280;41919;42.648;23.384;2023-03-04T05:48:33;94457.41;;;3.61;100.00
56052;BME280;41919;42.648;23.384;2023-03-04T05:51:00;94542.66;;;4.18;100.00
56052;BME280;41919;42.648;23.384;2023-03-04T05:53:26;94470.31;;;3.69;100.00
56052;BME280;41919;42.648;23.384;2023-03-04T05:55:51;94492.91;;;3.75;100.00
56052;BME280;41919;42.648;23.384;2023-03-04T05:58:17;94540.41;;;3.99;100.00
56052;BME280;41919;42.648;23.384;2023-03-04T06:00:43;94485.03;;;3.68;100.00
56052;BME280;41919;42.648;23.384;2023-03-04T06:03:17;94482.59;;;3.75;100.00
56052;BME280;41919;42.648;23.384;2023-03-04T06:05:43;94494.50;;;3.92;100.00
56052;BME280;41919;42.648;23.384;2023-03-04T06:08:10;94530.97;;;4.30;100.00
56052;BME280;41919;42.648;23.384;2023-03-04T06:10:37;94534.53;;;4.38;100.00
56052;BME280;41919;42.648;23.384;2023-03-04T06:13:03;94486.69;;;4.34;100.00
56052;BME280;41919;42.648;23.384;2023-03-04T06:15:28;94485.47;;;4.53;100.00
56052;BME280;41919;42.648;23.384;2023-03-04T06:17:55;94497.03;;;4.73;100.00
56052;BME280;41919;42.648;23.384;2023-03-04T06:20:21;94555.84;;;5.27;100.00
56052;BME280;41919;42.648;23.384;2023-03-04T06:22:46;94481.06;;;4.93;99.27
56052;BME280;41919;42.648;23.384;2023-03-04T06:25:12;94559.28;;;5.19;99.80
56052;BME280;41919;42.648;23.384;2023-03-04T06:27:37;94547.81;;;5.45;99.54
56052;BME280;41919;42.648;23.384;2023-03-04T06:30:03;94508.53;;;5.33;98.61
56052;BME280;41919;42.648;23.384;2023-03-04T06:32:28;94552.53;;;5.41;97.23
56052;BME280;41919;42.648;23.384;2023-03-04T06:34:54;94544.50;;;5.28;98.12
56052;BME280;41919;42.648;23.384;2023-03-04T06:37:19;94497.13;;;4.88;98.60
56052;BME280;41919;42.648;23.384;2023-03-04T06:39:45;94569.88;;;5.33;100.00
56052;BME280;41919;42.648;23.384;2023-03-04T06:42:11;94564.56;;;5.57;100.00
56052;BME280;41919;42.648;23.384;2023-03-04T06:44:37;94565.41;;;5.49;100.00
56052;BME280;41919;42.648;23.384;2023-03-04T06:47:02;94488.28;;;4.74;99.63
56052;BME280;41919;42.648;23.384;2023-03-04T06:49:28;94572.38;;;5.18;100.00
56052;BME280;41919;42.648;23.384;2023-03-04T06:51:53;94579.47;;;5.01;100.00
56052;BME280;41919;42.648;23.384;2023-03-04T06:54:19;94519.69;;;4.71;100.00
56052;BME280;41919;42.648;23.384;2023-03-04T06:56:44;94567.72;;;4.82;100.00
56052;BME280;41919;42.648;23.384;2023-03-04T06:59:10;94516.28;;;4.70;100.00
56052;BME280;41919;42.648;23.384;2023-03-04T07:01:35;94578.34;;;4.95;100.00
56052;BME280;41919;42.648;23.384;2023-03-04T07:04:02;94579.56;;;5.07;100.00
56052;BME280;41919;42.648;23.384;2023-03-04T07:06:28;94488.22;;;4.51;100.00
56052;BME280;41919;42.648;23.384;2023-03-04T07:08:54;94550.22;;;4.84;100.00
56052;BME280;41919;42.648;23.384;2023-03-04T07:11:21;94514.31;;;4.41;100.00
56052;BME280;41919;42.648;23.384;2023-03-04T07:13:47;94563.47;;;4.89;100.00
56052;BME280;41919;42.648;23.384;2023-03-04T07:16:15;94587.13;;;5.17;100.00
56052;BME280;41919;42.648;23.384;2023-03-04T07:18:42;94586.91;;;5.27;100.00
56052;BME280;41919;42.648;23.384;2023-03-04T07:21:08;94590.63;;;5.33;100.00
56052;BME280;41919;42.648;23.384;2023-03-04T07:23:34;94592.31;;;5.25;100.00
56052;BME280;41919;42.648;23.384;2023-03-04T07:26:00;94599.34;;;5.00;100.00
56052;BME280;41919;42.648;23.384;2023-03-04T07:28:26;94596.09;;;5.06;100.00
56052;BME280;41919;42.648;23.384;2023-03-04T07:30:51;94573.66;;;4.90;100.00
56052;BME280;41919;42.648;23.384;2023-03-04T07:33:16;94446.97;;;4.10;100.00
56052;BME280;41919;42.648;23.384;2023-03-04T07:35:42;94522.13;;;4.72;100.00
56052;BME280;41919;42.648;23.384;2023-03-04T07:38:07;94527.50;;;4.94;100.00
56052;BME280;41919;42.648;23.384;2023-03-04T07:40:33;94597.53;;;5.40;100.00
56052;BME280;41919;42.648;23.384;2023-03-04T07:42:58;94546.78;;;5.23;100.00
56052;BME280;41919;42.648;23.384;2023-03-04T07:45:25;94540.91;;;5.29;100.00
56052;BME280;41919;42.648;23.384;2023-03-04T07:47:51;94572.09;;;5.67;100.00
56052;BME280;41919;42.648;23.384;2023-03-04T07:50:17;94587.03;;;5.88;100.00
56052;BME280;41919;42.648;23.384;2023-03-04T07:52:45;94511.03;;;5.64;100.00
56052;BME280;41919;42.648;23.384;2023-03-04T07:55:12;94588.59;;;6.20;100.00
56052;BME280;41919;42.648;23.384;2023-03-04T07:57:40;94584.81;;;6.08;100.00
56052;BME280;41919;42.648;23.384;2023-03-04T08:00:07;94512.47;;;5.67;100.00
56052;BME280;41919;42.648;23.384;2023-03-04T08:02:33;94581.28;;;6.01;100.00
56052;BME280;41919;42.648;23.384;2023-03-04T08:04:58;94536.19;;;5.79;100.00
56052;BME280;41919;42.648;23.384;2023-03-04T08:07:24;94563.47;;;5.98;100.00
56052;BME280;41919;42.648;23.384;2023-03-04T08:09:49;94513.81;;;5.63;100.00
56052;BME280;41919;42.648;23.384;2023-03-04T08:12:15;94579.88;;;6.13;100.00
56052;BME280;41919;42.648;23.384;2023-03-04T08:14:40;94587.03;;;6.11;100.00
56052;BME280;41919;42.648;23.384;2023-03-04T08:17:06;94589.69;;;6.26;100.00
56052;BME280;41919;42.648;23.384;2023-03-04T08:19:32;94560.75;;;5.91;100.00
56052;BME280;41919;42.648;23.384;2023-03-04T08:21:58;94501.81;;;5.62;100.00
56052;BME280;41919;42.648;23.384;2023-03-04T08:24:23;94590.50;;;6.41;100.00
56052;BME280;41919;42.648;23.384;2023-03-04T08:26:49;94552.31;;;6.50;99.17
56052;BME280;41919;42.648;23.384;2023-03-04T08:29:21;94501.72;;;6.31;99.15
56052;BME280;41919;42.648;23.384;2023-03-04T08:31:48;94558.91;;;6.97;97.06
56052;BME280;41919;42.648;23.384;2023-03-04T08:34:14;94486.63;;;6.71;94.83
56052;BME280;41919;42.648;23.384;2023-03-04T08:36:40;94577.25;;;7.25;94.07
56052;BME280;41919;42.648;23.384;2023-03-04T08:39:13;94543.03;;;7.43;91.77
56052;BME280;41919;42.648;23.384;2023-03-04T08:41:39;94507.38;;;7.59;92.15
56052;BME280;41919;42.648;23.384;2023-03-04T08:44:04;94501.00;;;7.83;87.99
56052;BME280;41919;42.648;23.384;2023-03-04T08:46:30;94528.88;;;8.17;85.45
56052;BME280;41919;42.648;23.384;2023-03-04T08:48:55;94549.81;;;8.31;83.38
56052;BME280;41919;42.648;23.384;2023-03-04T08:51:21;94562.88;;;8.66;82.55
56052;BME280;41919;42.648;23.384;2023-03-04T08:53:47;94567.66;;;8.90;81.14
56052;BME280;41919;42.648;23.384;2023-03-04T08:56:13;94552.44;;;9.00;78.80
56052;BME280;41919;42.648;23.384;2023-03-04T08:58:39;94494.22;;;8.80;77.32
56052;BME280;41919;42.648;23.384;2023-03-04T09:01:08;94554.19;;;9.28;77.39
56052;BME280;41919;42.648;23.384;2023-03-04T09:03:34;94540.06;;;9.09;76.83
56052;BME280;41919;42.648;23.384;2023-03-04T09:06:01;94562.91;;;9.07;77.44
56052;BME280;41919;42.648;23.384;2023-03-04T09:08:27;94499.22;;;8.81;76.65
56052;BME280;41919;42.648;23.384;2023-03-04T09:10:53;94533.47;;;9.13;76.49
56052;BME280;41919;42.648;23.384;2023-03-04T09:13:20;94496.25;;;8.91;76.91
56052;BME280;41919;42.648;23.384;2023-03-04T09:15:48;94482.38;;;8.71;76.85
56052;BME280;41919;42.648;23.384;2023-03-04T09:18:15;94510.88;;;8.86;77.26
56052;BME280;41919;42.648;23.384;2023-03-04T09:20:40;94544.25;;;9.10;76.55
56052;BME280;41919;42.648;23.384;2023-03-04T09:23:06;94471.88;;;8.57;77.33
56052;BME280;41919;42.648;23.384;2023-03-04T09:25:33;94484.75;;;8.72;77.09
56052;BME280;41919;42.648;23.384;2023-03-04T09:27:59;94547.75;;;8.82;77.36
56052;BME280;41919;42.648;23.384;2023-03-04T09:30:24;94473.88;;;8.55;76.77
56052;BME280;41919;42.648;23.384;2023-03-04T09:32:50;94540.25;;;9.08;76.56
56052;BME280;41919;42.648;23.384;2023-03-04T09:35:15;94536.25;;;9.18;75.84
56052;BME280;41919;42.648;23.384;2023-03-04T09:37:41;94534.06;;;9.22;74.96
56052;BME280;41919;42.648;23.384;2023-03-04T09:40:07;94468.59;;;8.90;73.38
56052;BME280;41919;42.648;23.384;2023-03-04T09:42:36;94463.59;;;8.89;73.21
56052;BME280;41919;42.648;23.384;2023-03-04T09:45:04;94469.41;;;8.84;73.77
56052;BME280;41919;42.648;23.384;2023-03-04T09:47:33;94523.25;;;9.25;73.26
56052;BME280;41919;42.648;23.384;2023-03-04T09:50:03;94534.16;;;9.49;72.17
56052;BME280;41919;42.648;23.384;2023-03-04T09:52:39;94519.13;;;9.57;71.76
56052;BME280;41919;42.648;23.384;2023-03-04T09:55:29;94533.22;;;9.76;71.38
56052;BME280;41919;42.648;23.384;2023-03-04T10:00:45;94522.75;;;9.63;70.71
56052;BME280;41919;42.648;23.384;2023-03-04T10:03:17;94517.22;;;9.18;72.57
56052;BME280;41919;42.648;23.384;2023-03-04T10:10:44;94494.38;;;9.33;71.03
56052;BME280;41919;42.648;23.384;2023-03-04T10:13:16;94491.44;;;9.50;70.28
56052;BME280;41919;42.648;23.384;2023-03-04T10:15:48;94509.25;;;9.33;70.80
56052;BME280;41919;42.648;23.384;2023-03-04T10:18:20;94511.06;;;9.32;71.59
56052;BME280;41919;42.648;23.384;2023-03-04T10:21:19;94507.06;;;9.36;70.81
56052;BME280;41919;42.648;23.384;2023-03-04T10:23:46;94445.84;;;9.19;69.97
56052;BME280;41919;42.648;23.384;2023-03-04T10:26:16;94444.03;;;9.26;69.50
56052;BME280;41919;42.648;23.384;2023-03-04T10:28:42;94488.03;;;9.56;69.68
56052;BME280;41919;42.648;23.384;2023-03-04T10:31:16;94465.69;;;9.33;69.20
56052;BME280;41919;42.648;23.384;2023-03-04T10:33:43;94438.59;;;9.08;69.24
56052;BME280;41919;42.648;23.384;2023-03-04T10:36:24;94488.63;;;9.71;68.77
56052;BME280;41919;42.648;23.384;2023-03-04T10:39:04;94475.59;;;9.98;66.76
56052;BME280;41919;42.648;23.384;2023-03-04T10:41:31;94440.84;;;10.04;65.76
56052;BME280;41919;42.648;23.384;2023-03-04T10:46:40;94462.09;;;10.41;66.35
56052;BME280;41919;42.648;23.384;2023-03-04T10:49:06;94430.78;;;10.34;66.03
56052;BME280;41919;42.648;23.384;2023-03-04T10:51:42;94371.75;;;10.13;65.19
56052;BME280;41919;42.648;23.384;2023-03-04T10:54:40;94458.66;;;10.61;64.86
56052;BME280;41919;42.648;23.384;2023-03-04T10:57:17;94395.81;;;10.29;65.53
56052;BME280;41919;42.648;23.384;2023-03-04T11:00:00;94457.19;;;10.71;65.16
56052;BME280;41919;42.648;23.384;2023-03-04T11:02:33;94440.59;;;10.39;65.17
56052;BME280;41919;42.648;23.384;2023-03-04T11:07:42;94369.19;;;9.87;67.42
56052;BME280;41919;42.648;23.384;2023-03-04T11:15:25;94431.78;;;10.40;67.27
56052;BME280;41919;42.648;23.384;2023-03-04T11:18:08;94409.69;;;10.36;66.65
56052;BME280;41919;42.648;23.384;2023-03-04T11:20:46;94414.28;;;10.47;66.74
56052;BME280;41919;42.648;23.384;2023-03-04T11:26:01;94399.25;;;10.81;63.96
56052;BME280;41919;42.648;23.384;2023-03-04T11:28:43;94388.31;;;10.97;63.38
56052;BME280;41919;42.648;23.384;2023-03-04T11:31:16;94322.25;;;10.77;62.97
56052;BME280;41919;42.648;23.384;2023-03-04T11:38:53;94373.44;;;11.55;61.58
56052;BME280;41919;42.648;23.384;2023-03-04T11:41:32;94364.34;;;11.32;61.04
56052;BME280;41919;42.648;23.384;2023-03-04T11:43:59;94302.25;;;11.21;59.13
56052;BME280;41919;42.648;23.384;2023-03-04T11:46:55;94376.41;;;11.84;58.53
56052;BME280;41919;42.648;23.384;2023-03-04T11:52:40;94378.38;;;11.88;58.82
56052;BME280;41919;42.648;23.384;2023-03-04T11:58:42;94363.31;;;12.09;57.64
56052;BME280;41919;42.648;23.384;2023-03-04T12:11:18;94347.31;;;11.23;59.44
56052;BME280;41919;42.648;23.384;2023-03-04T12:14:07;94346.31;;;11.24;60.86
56052;BME280;41919;42.648;23.384;2023-03-04T12:36:05;94333.50;;;10.39;65.43
56052;BME280;41919;42.648;23.384;2023-03-04T12:38:46;94332.31;;;10.28;66.64
56052;BME280;41919;42.648;23.384;2023-03-04T12:41:36;94334.72;;;10.30;65.64
56052;BME280;41919;42.648;23.384;2023-03-04T12:44:17;94251.63;;;10.07;65.21
56052;BME280;41919;42.648;23.384;2023-03-04T12:49:58;94315.94;;;10.59;64.67
56052;BME280;41919;42.648;23.384;2023-03-04T12:55:22;94257.16;;;10.37;64.09
56052;BME280;41919;42.648;23.384;2023-03-04T12:57:50;94305.53;;;10.46;65.68
56052;BME280;41919;42.648;23.384;2023-03-04T13:11:41;94293.72;;;10.44;65.97
56052;BME280;41919;42.648;23.384;2023-03-04T13:16:41;94190.53;;;8.97;68.60
56052;BME280;41919;42.648;23.384;2023-03-04T13:25:27;94287.94;;;9.43;70.54
56052;BME280;41919;42.648;23.384;2023-03-04T13:36:52;94285.56;;;9.35;71.73
56052;BME280;41919;42.648;23.384;2023-03-04T13:39:03;94223.78;;;9.22;70.31
56052;BME280;41919;42.648;23.384;2023-03-04T13:41:29;94279.47;;;9.74;69.51
56052;BME280;41919;42.648;23.384;2023-03-04T13:44:00;94199.69;;;9.33;69.21
56052;BME280;41919;42.648;23.384;2023-03-04T13:51:26;94272.59;;;9.93;70.11
56052;BME280;41919;42.648;23.384;2023-03-04T13:59:00;94225.81;;;9.85;68.64
56052;BME280;41919;42.648;23.384;2023-03-04T14:01:29;94185.75;;;9.73;68.92
56052;BME280;41919;42.648;23.384;2023-03-04T14:03:57;94243.53;;;10.21;68.39
56052;BME280;41919;42.648;23.384;2023-03-04T14:06:28;94241.13;;;10.20;68.06
56052;BME280;41919;42.648;23.384;2023-03-04T14:08:55;94175.97;;;10.00;68.42
56052;BME280;41919;42.648;23.384;2023-03-04T14:13:54;94235.00;;;10.46;67.71
56052;BME280;41919;42.648;23.384;2023-03-04T14:16:21;94222.78;;;10.40;67.32
56052;BME280;41919;42.648;23.384;2023-03-04T14:19:02;94225.06;;;10.62;66.51
56052;BME280;41919;42.648;23.384;2023-03-04T14:21:29;94165.59;;;10.32;66.06
56052;BME280;41919;42.648;23.384;2023-03-04T14:24:09;94179.16;;;10.40;66.40
56052;BME280;41919;42.648;23.384;2023-03-04T14:26:36;94228.81;;;10.72;66.44
56052;BME280;41919;42.648;23.384;2023-03-04T14:29:02;94158.13;;;10.29;66.13
56052;BME280;41919;42.648;23.384;2023-03-04T14:31:30;94182.75;;;10.46;66.28
56052;BME280;41919;42.648;23.384;2023-03-04T14:33:59;94222.72;;;10.78;66.53
56052;BME280;41919;42.648;23.384;2023-03-04T14:36:32;94229.34;;;10.81;65.76
56052;BME280;41919;42.648;23.384;2023-03-04T14:39:03;94232.38;;;10.78;66.23
56052;BME280;41919;42.648;23.384;2023-03-04T14:41:34;94158.00;;;10.49;65.34
56052;BME280;41919;42.648;23.384;2023-03-04T14:44:41;94228.28;;;10.89;65.43
56052;BME280;41919;42.648;23.384;2023-03-04T14:47:20;94224.31;;;10.79;64.97
56052;BME280;41919;42.648;23.384;2023-03-04T14:49:48;94159.06;;;10.41;65.71
56052;BME280;41919;42.648;23.384;2023-03-04T14:52:47;94206.25;;;10.78;65.03